Time;durP1;ratioP1;P1;durP2;ratioP2;P2;SDS_P1;SDS_P2;PMS_P1;PMS_P2;Temp;Humidity;BMP_temperature;BMP_pressure;BME280_temperature;BME280_humidity;BME280_pressure;Samples;Min_cycle;Max_cycle;Signal;HPM_P1;HPM_P2
2022/03/21 00:00:34;;;;;;;14.93;9.07;;;;;;;;;;5095736;28;20791;-69
2022/03/21 00:03:03;;;;;;;16.93;7.30;;;;;;;;;;5095608;28;20808;-69
2022/03/21 00:05:30;;;;;;;14.00;7.30;;;;;;;;;;5095303;28;20572;-69
2022/03/21 00:07:58;;;;;;;17.70;6.57;;;;;;;;;;5095268;28;20975;-69
2022/03/21 00:10:25;;;;;;;18.07;9.17;;;;;;;;;;5095420;28;20959;-69
2022/03/21 00:12:52;;;;;;;10.80;8.20;;;;;;;;;;5095357;28;20804;-69
2022/03/21 00:15:20;;;;;;;18.40;8.63;;;;;;;;;;5095135;28;20474;-69
2022/03/21 00:17:47;;;;;;;13.83;8.73;;;;;;;;;;5095092;28;20477;-69
2022/03/21 00:20:16;;;;;;;12.90;7.30;;;;;;;;;;5095265;28;20462;-69
2022/03/21 00:22:43;;;;;;;14.30;7.70;;;;;;;;;;5095110;28;20528;-69
2022/03/21 00:25:11;;;;;;;17.13;8.57;;;;;;;;;;5094772;28;20494;-69
2022/03/21 00:27:38;;;;;;;12.03;6.83;;;;;;;;;;5095047;28;20478;-69
2022/03/21 00:30:08;;;;;;;12.10;7.10;;;;;;;;;;5095111;28;20966;-69
2022/03/21 00:32:35;;;;;;;14.00;7.43;;;;;;;;;;5095036;28;20450;-69
2022/03/21 00:35:04;;;;;;;10.20;5.90;;;;;;;;;;5094644;28;20447;-70
2022/03/21 00:37:33;;;;;;;11.20;6.73;;;;;;;;;;5094753;28;20558;-70
2022/03/21 00:40:00;;;;;;;8.83;6.00;;;;;;;;;;5094337;28;20447;-69
2022/03/21 00:42:27;;;;;;;10.50;6.60;;;;;;;;;;5094945;28;20459;-69
2022/03/21 00:44:56;;;;;;;15.07;7.00;;;;;;;;;;5094436;28;20478;-69
2022/03/21 00:47:23;;;;;;;11.40;6.53;;;;;;;;;;5094551;28;20470;-69
2022/03/21 00:49:52;;;;;;;13.30;7.40;;;;;;;;;;5094601;28;20951;-70
2022/03/21 00:52:19;;;;;;;13.07;7.33;;;;;;;;;;5094578;28;20908;-69
2022/03/21 00:54:48;;;;;;;10.70;7.30;;;;;;;;;;5093983;28;20873;-70
2022/03/21 00:57:15;;;;;;;10.77;7.10;;;;;;;;;;5094460;28;20471;-69
2022/03/21 00:59:42;;;;;;;10.70;5.60;;;;;;;;;;5094428;28;20454;-69
2022/03/21 01:02:10;;;;;;;10.30;6.40;;;;;;;;;;5094371;28;20832;-70
2022/03/21 01:04:37;;;;;;;9.23;5.70;;;;;;;;;;5094039;28;20450;-69
2022/03/21 01:07:04;;;;;;;12.03;7.47;;;;;;;;;;5093287;28;20963;-69
2022/03/21 01:09:32;;;;;;;11.20;7.33;;;;;;;;;;5094266;28;20814;-69
2022/03/21 01:12:03;;;;;;;9.97;5.53;;;;;;;;;;5094173;28;20447;-69
2022/03/21 01:14:31;;;;;;;12.03;7.87;;;;;;;;;;5093881;28;20447;-70
2022/03/21 01:16:58;;;;;;;12.93;8.23;;;;;;;;;;5093955;28;20446;-70
2022/03/21 01:19:27;;;;;;;11.47;7.47;;;;;;;;;;5094051;28;20459;-69
2022/03/21 01:21:54;;;;;;;12.73;8.00;;;;;;;;;;5093836;28;20462;-69
2022/03/21 01:24:22;;;;;;;11.50;6.43;;;;;;;;;;5093867;28;20453;-69
2022/03/21 01:26:49;;;;;;;10.77;7.30;;;;;;;;;;5093696;28;20522;-69
2022/03/21 01:29:17;;;;;;;14.50;7.43;;;;;;;;;;5093895;28;20467;-70
2022/03/21 01:31:44;;;;;;;14.67;6.50;;;;;;;;;;5093997;28;20989;-69
2022/03/21 01:34:11;;;;;;;11.13;6.43;;;;;;;;;;5093715;28;20446;-69
2022/03/21 01:36:38;;;;;;;13.80;8.67;;;;;;;;;;5093947;28;20443;-69
2022/03/21 01:39:06;;;;;;;13.07;7.47;;;;;;;;;;5093632;28;20478;-69
2022/03/21 01:41:33;;;;;;;12.90;7.67;;;;;;;;;;5093064;28;20454;-69
2022/03/21 01:44:01;;;;;;;16.87;8.47;;;;;;;;;;5093612;28;20450;-69
2022/03/21 01:46:29;;;;;;;11.37;7.20;;;;;;;;;;5093623;28;20482;-69
2022/03/21 01:48:57;;;;;;;11.30;6.80;;;;;;;;;;5093583;28;20482;-69
2022/03/21 01:51:24;;;;;;;11.90;7.50;;;;;;;;;;5093581;28;20523;-69
2022/03/21 01:56:38;;;;;;;11.70;7.73;;;;;;;;;;5093472;28;20934;-70
2022/03/21 01:59:05;;;;;;;13.93;6.63;;;;;;;;;;5093417;28;21001;-69
2022/03/21 02:01:33;;;;;;;14.30;7.90;;;;;;;;;;5093517;28;20940;-69
2022/03/21 02:04:00;;;;;;;12.00;7.83;;;;;;;;;;5093063;28;20450;-69
2022/03/21 02:06:28;;;;;;;9.90;7.53;;;;;;;;;;5093388;28;20485;-69
2022/03/21 02:08:57;;;;;;;13.40;7.50;;;;;;;;;;5093008;28;20475;-70
2022/03/21 02:11:24;;;;;;;11.43;6.80;;;;;;;;;;5093396;28;20446;-69
2022/03/21 02:13:52;;;;;;;14.60;7.53;;;;;;;;;;5092986;28;20447;-69
2022/03/21 02:16:19;;;;;;;12.47;8.20;;;;;;;;;;5093293;28;20943;-69
2022/03/21 02:18:48;;;;;;;13.97;7.70;;;;;;;;;;5093004;28;20470;-69
2022/03/21 02:21:16;;;;;;;10.37;8.17;;;;;;;;;;5093278;28;20450;-69
2022/03/21 02:23:48;;;;;;;11.20;7.70;;;;;;;;;;5092899;28;20450;-71
2022/03/21 02:26:17;;;;;;;16.33;7.00;;;;;;;;;;5093108;28;20493;-69
2022/03/21 02:28:46;;;;;;;11.20;6.90;;;;;;;;;;5092994;28;20502;-69
2022/03/21 02:31:13;;;;;;;14.97;8.17;;;;;;;;;;5093119;28;20847;-69
2022/03/21 02:33:40;;;;;;;14.23;8.00;;;;;;;;;;5092844;28;20454;-70
2022/03/21 02:36:08;;;;;;;17.37;7.97;;;;;;;;;;5092813;28;20450;-70
2022/03/21 02:38:36;;;;;;;11.23;6.27;;;;;;;;;;5092942;28;20477;-69
2022/03/21 02:41:04;;;;;;;15.70;8.20;;;;;;;;;;5092530;28;20450;-69
2022/03/21 02:43:33;;;;;;;11.80;8.70;;;;;;;;;;5092932;28;20451;-69
2022/03/21 02:46:06;;;;;;;10.13;7.10;;;;;;;;;;5092782;28;20574;-69
2022/03/21 02:48:33;;;;;;;12.67;7.63;;;;;;;;;;5092815;28;20835;-70
2022/03/21 02:51:01;;;;;;;18.47;8.33;;;;;;;;;;5092906;28;20446;-69
2022/03/21 02:53:29;;;;;;;12.60;7.60;;;;;;;;;;5092679;28;20490;-70
2022/03/21 02:55:56;;;;;;;16.70;7.90;;;;;;;;;;5092705;28;20457;-69
2022/03/21 02:58:24;;;;;;;11.60;7.20;;;;;;;;;;5092838;28;20462;-69
2022/03/21 03:00:52;;;;;;;10.63;7.87;;;;;;;;;;5092777;28;20454;-69
2022/03/21 03:03:19;;;;;;;15.20;7.20;;;;;;;;;;5092752;28;20455;-69
2022/03/21 03:05:46;;;;;;;14.50;7.87;;;;;;;;;;5092565;28;21018;-69
2022/03/21 03:08:13;;;;;;;12.07;6.93;;;;;;;;;;5092590;28;20474;-69
2022/03/21 03:10:40;;;;;;;15.40;7.63;;;;;;;;;;5092929;28;20454;-69
2022/03/21 03:13:09;;;;;;;17.20;7.37;;;;;;;;;;5092706;28;20446;-69
2022/03/21 03:15:36;;;;;;;10.83;7.17;;;;;;;;;;5092402;28;20478;-69
2022/03/21 03:18:05;;;;;;;10.40;5.90;;;;;;;;;;5092466;28;20470;-69
2022/03/21 03:20:32;;;;;;;8.73;7.23;;;;;;;;;;5092836;28;20454;-69
2022/03/21 03:23:01;;;;;;;12.10;6.60;;;;;;;;;;5092421;28;20462;-69
2022/03/21 03:25:28;;;;;;;9.60;7.03;;;;;;;;;;5092224;28;20446;-69
2022/03/21 03:27:55;;;;;;;11.70;7.53;;;;;;;;;;5092304;28;20474;-69
2022/03/21 03:30:22;;;;;;;7.73;6.80;;;;;;;;;;5094496;28;20820;-70
2022/03/21 03:32:51;;;;;;;7.87;6.47;;;;;;;;;;5096163;28;20446;-69
2022/03/21 03:35:19;;;;;;;10.10;6.77;;;;;;;;;;5096279;28;20919;-69
2022/03/21 03:37:46;;;;;;;10.70;7.20;;;;;;;;;;5096069;28;20470;-69
2022/03/21 03:40:14;;;;;;;11.37;7.23;;;;;;;;;;5095432;28;20446;-69
2022/03/21 03:42:41;;;;;;;9.03;6.83;;;;;;;;;;5095995;28;20511;-69
2022/03/21 03:45:09;;;;;;;11.13;6.73;;;;;;;;;;5095659;28;20457;-69
2022/03/21 03:47:36;;;;;;;12.37;6.53;;;;;;;;;;5095765;28;21003;-69
2022/03/21 03:50:03;;;;;;;12.40;7.30;;;;;;;;;;5095801;28;20451;-69
2022/03/21 03:52:31;;;;;;;9.07;5.50;;;;;;;;;;5095867;28;20434;-69
2022/03/21 03:54:58;;;;;;;7.60;5.90;;;;;;;;;;5095338;28;20477;-70
2022/03/21 03:57:26;;;;;;;13.60;6.90;;;;;;;;;;5095837;28;20467;-69
2022/03/21 03:59:53;;;;;;;12.50;6.70;;;;;;;;;;5095667;28;20465;-69
2022/03/21 04:02:20;;;;;;;12.20;6.97;;;;;;;;;;5095775;28;20820;-69
2022/03/21 04:04:47;;;;;;;11.30;6.20;;;;;;;;;;5095313;28;20455;-69
2022/03/21 04:07:14;;;;;;;15.40;6.10;;;;;;;;;;5095483;28;20486;-69
2022/03/21 04:09:43;;;;;;;9.13;6.57;;;;;;;;;;5095469;28;20454;-69
2022/03/21 04:12:11;;;;;;;11.57;7.00;;;;;;;;;;5095436;28;20446;-69
2022/03/21 04:14:38;;;;;;;8.77;6.03;;;;;;;;;;5095276;28;20457;-69
2022/03/21 04:17:05;;;;;;;7.33;6.27;;;;;;;;;;5095285;28;20462;-69
2022/03/21 04:19:32;;;;;;;17.40;7.50;;;;;;;;;;5095315;28;20447;-69
2022/03/21 04:21:59;;;;;;;10.07;6.50;;;;;;;;;;5095091;28;20964;-69
2022/03/21 04:24:26;;;;;;;11.83;6.83;;;;;;;;;;5095004;28;20450;-69
2022/03/21 04:26:55;;;;;;;31.37;10.87;;;;;;;;;;5094979;28;20492;-70
2022/03/21 04:29:22;;;;;;;15.27;6.60;;;;;;;;;;5095372;28;20836;-69
2022/03/21 04:31:49;;;;;;;8.20;6.73;;;;;;;;;;5095185;28;20473;-69
2022/03/21 04:34:16;;;;;;;13.43;7.10;;;;;;;;;;5094885;28;20450;-69
2022/03/21 04:36:43;;;;;;;10.23;5.90;;;;;;;;;;5094822;28;20439;-69
2022/03/21 04:39:10;;;;;;;11.40;6.23;;;;;;;;;;5094830;28;20855;-69
2022/03/21 04:41:37;;;;;;;13.00;6.57;;;;;;;;;;5094588;28;20482;-69
2022/03/21 04:44:06;;;;;;;11.20;6.60;;;;;;;;;;5094622;28;20462;-69
2022/03/21 04:46:33;;;;;;;8.67;5.63;;;;;;;;;;5094769;28;20482;-69
2022/03/21 04:49:00;;;;;;;12.57;6.17;;;;;;;;;;5094663;28;20963;-69
2022/03/21 04:51:27;;;;;;;17.03;7.10;;;;;;;;;;5094790;28;20450;-70
2022/03/21 04:53:54;;;;;;;13.50;6.90;;;;;;;;;;5094359;28;20454;-71
2022/03/21 04:56:22;;;;;;;10.37;7.50;;;;;;;;;;5094727;28;20442;-69
2022/03/21 04:58:49;;;;;;;10.73;6.73;;;;;;;;;;5094648;28;20953;-69
2022/03/21 05:01:17;;;;;;;10.13;6.60;;;;;;;;;;5094581;28;20454;-69
2022/03/21 05:03:44;;;;;;;11.13;7.03;;;;;;;;;;5094053;28;20455;-69
2022/03/21 05:06:14;;;;;;;10.93;7.60;;;;;;;;;;5094178;28;21010;-69
2022/03/21 05:08:41;;;;;;;24.40;9.70;;;;;;;;;;5094223;28;20470;-69
2022/03/21 05:11:08;;;;;;;13.23;7.63;;;;;;;;;;5094191;28;20943;-69
2022/03/21 05:13:36;;;;;;;16.00;10.90;;;;;;;;;;5094168;28;20462;-70
2022/03/21 05:16:05;;;;;;;8.87;7.70;;;;;;;;;;5094024;28;20523;-69
2022/03/21 05:18:34;;;;;;;10.73;6.63;;;;;;;;;;5093901;28;20473;-69
2022/03/21 05:21:01;;;;;;;15.00;8.40;;;;;;;;;;5094030;28;20455;-69
2022/03/21 05:31:43;;;;;;;13.60;8.43;;;;;;;;;;5093430;28;20465;-69
2022/03/21 05:36:56;;;;;;;20.20;12.63;;;;;;;;;;5093645;28;20430;-70
2022/03/21 05:39:23;;;;;;;8.63;6.70;;;;;;;;;;5093714;28;20474;-70
2022/03/21 05:41:52;;;;;;;85.67;39.17;;;;;;;;;;5093181;28;20447;-69
2022/03/21 05:44:19;;;;;;;26.80;13.60;;;;;;;;;;5093423;28;20450;-69
2022/03/21 05:46:46;;;;;;;34.40;14.50;;;;;;;;;;5093554;28;20854;-69
2022/03/21 05:49:13;;;;;;;14.87;8.07;;;;;;;;;;5093542;28;20471;-68
2022/03/21 05:51:41;;;;;;;12.83;7.50;;;;;;;;;;5093525;28;20443;-69
2022/03/21 05:54:10;;;;;;;27.93;16.60;;;;;;;;;;5092762;28;20451;-69
2022/03/21 05:56:37;;;;;;;8.30;5.70;;;;;;;;;;5093602;28;20504;-69
2022/03/21 06:01:45;;;;;;;15.77;9.37;;;;;;;;;;5093013;28;20442;-69
2022/03/21 06:04:12;;;;;;;10.60;6.47;;;;;;;;;;5093102;28;20454;-69
2022/03/21 06:06:41;;;;;;;9.17;6.67;;;;;;;;;;5093365;28;20482;-69
2022/03/21 06:09:08;;;;;;;11.57;8.27;;;;;;;;;;5093463;28;20496;-69
2022/03/21 06:11:37;;;;;;;13.47;6.30;;;;;;;;;;5093356;28;20458;-69
2022/03/21 06:14:05;;;;;;;14.10;8.90;;;;;;;;;;5093051;28;20451;-69
2022/03/21 06:16:32;;;;;;;14.50;9.17;;;;;;;;;;5093314;28;20549;-69
2022/03/21 06:19:00;;;;;;;12.90;9.10;;;;;;;;;;5092951;28;20469;-69
2022/03/21 06:21:28;;;;;;;12.27;8.17;;;;;;;;;;5093045;28;20454;-69
2022/03/21 06:23:56;;;;;;;13.03;7.07;;;;;;;;;;5092774;28;20455;-69
2022/03/21 06:26:23;;;;;;;13.33;7.73;;;;;;;;;;5093111;28;20944;-69
2022/03/21 06:28:51;;;;;;;13.67;8.23;;;;;;;;;;5093113;28;20474;-69
2022/03/21 06:31:18;;;;;;;17.80;7.30;;;;;;;;;;5093220;28;20453;-70
2022/03/21 06:33:45;;;;;;;13.50;6.63;;;;;;;;;;5092755;28;20451;-70
2022/03/21 06:36:14;;;;;;;17.37;9.40;;;;;;;;;;5092935;28;20946;-69
2022/03/21 06:38:41;;;;;;;15.80;8.73;;;;;;;;;;5093129;28;20501;-69
2022/03/21 06:41:10;;;;;;;12.90;8.43;;;;;;;;;;5092629;28;20451;-69
2022/03/21 06:43:37;;;;;;;15.47;8.23;;;;;;;;;;5092902;28;20936;-69
2022/03/21 06:46:05;;;;;;;13.43;8.33;;;;;;;;;;5092641;28;20450;-70
2022/03/21 06:48:34;;;;;;;11.50;6.97;;;;;;;;;;5092902;28;20910;-69
2022/03/21 06:51:01;;;;;;;12.90;8.97;;;;;;;;;;5092807;28;20454;-69
2022/03/21 06:53:28;;;;;;;11.57;7.10;;;;;;;;;;5092810;28;20451;-69
2022/03/21 06:55:55;;;;;;;13.80;8.30;;;;;;;;;;5092702;28;20458;-69
2022/03/21 06:58:24;;;;;;;35.27;29.53;;;;;;;;;;5092767;28;20528;-69
2022/03/21 07:00:52;;;;;;;12.40;8.53;;;;;;;;;;5092757;28;20451;-69
2022/03/21 07:03:20;;;;;;;13.30;9.40;;;;;;;;;;5092762;28;20512;-69
2022/03/21 07:05:47;;;;;;;68.57;42.40;;;;;;;;;;5095188;28;20828;-71
2022/03/21 07:08:14;;;;;;;11.33;8.20;;;;;;;;;;5096084;28;20485;-69
2022/03/21 07:10:44;;;;;;;11.93;8.53;;;;;;;;;;5096679;28;20450;-70
2022/03/21 07:13:11;;;;;;;16.63;8.90;;;;;;;;;;5096590;28;20465;-70
2022/03/21 07:15:39;;;;;;;12.40;8.83;;;;;;;;;;5096580;28;20951;-70
2022/03/21 07:18:08;;;;;;;9.37;7.60;;;;;;;;;;5096281;28;20481;-70
2022/03/21 07:20:35;;;;;;;13.80;7.90;;;;;;;;;;5096687;28;20542;-70
2022/03/21 07:23:03;;;;;;;11.03;8.50;;;;;;;;;;5096329;28;20462;-70
2022/03/21 07:25:30;;;;;;;13.73;8.77;;;;;;;;;;5096201;28;20997;-71
2022/03/21 07:27:57;;;;;;;12.60;7.93;;;;;;;;;;5096027;28;20999;-69
2022/03/21 07:30:24;;;;;;;11.37;7.60;;;;;;;;;;5096512;28;20454;-70
2022/03/21 07:32:53;;;;;;;12.77;8.77;;;;;;;;;;5096118;28;20466;-71
2022/03/21 07:35:20;;;;;;;8.00;6.80;;;;;;;;;;5096007;28;20455;-69
2022/03/21 07:37:49;;;;;;;12.63;8.67;;;;;;;;;;5096047;28;20473;-70
2022/03/21 07:40:17;;;;;;;8.37;7.37;;;;;;;;;;5095580;28;20546;-70
2022/03/21 07:42:45;;;;;;;12.20;8.83;;;;;;;;;;5096145;28;20458;-69
2022/03/21 07:47:59;;;;;;;11.03;8.70;;;;;;;;;;5095883;28;20856;-70
2022/03/21 07:50:26;;;;;;;9.80;7.63;;;;;;;;;;5095894;28;20455;-70
2022/03/21 07:52:54;;;;;;;10.70;8.07;;;;;;;;;;5095715;28;20458;-70
2022/03/21 07:55:21;;;;;;;10.33;7.30;;;;;;;;;;5095633;28;20482;-69
2022/03/21 07:57:48;;;;;;;9.23;7.40;;;;;;;;;;5095649;28;20474;-70
2022/03/21 08:00:16;;;;;;;9.57;8.00;;;;;;;;;;5095771;28;20458;-70
2022/03/21 08:02:44;;;;;;;8.73;7.83;;;;;;;;;;5095704;28;20482;-70
2022/03/21 08:05:13;;;;;;;12.47;8.80;;;;;;;;;;5095420;28;20519;-70
2022/03/21 08:07:40;;;;;;;12.23;8.43;;;;;;;;;;5095286;28;20486;-69
2022/03/21 08:10:08;;;;;;;12.47;9.27;;;;;;;;;;5095403;28;20554;-69
2022/03/21 08:12:36;;;;;;;9.90;7.70;;;;;;;;;;5095467;28;20463;-69
2022/03/21 08:15:04;;;;;;;16.17;7.90;;;;;;;;;;5095155;28;20451;-70
2022/03/21 08:17:31;;;;;;;8.20;7.20;;;;;;;;;;5095122;28;20475;-70
2022/03/21 08:19:58;;;;;;;9.43;7.70;;;;;;;;;;5095123;28;20450;-71
2022/03/21 08:22:27;;;;;;;10.23;8.17;;;;;;;;;;5095263;28;20489;-70
2022/03/21 08:24:54;;;;;;;10.00;8.00;;;;;;;;;;5095052;28;20516;-70
2022/03/21 08:27:22;;;;;;;14.03;9.17;;;;;;;;;;5095080;28;20494;-70
2022/03/21 08:29:49;;;;;;;9.13;7.50;;;;;;;;;;5095128;28;20450;-70
2022/03/21 08:32:16;;;;;;;13.87;9.00;;;;;;;;;;5095219;28;20948;-70
2022/03/21 08:34:43;;;;;;;11.77;8.30;;;;;;;;;;5095014;28;20839;-69
2022/03/21 08:37:10;;;;;;;9.13;7.73;;;;;;;;;;5094976;28;20450;-70
2022/03/21 08:39:39;;;;;;;10.53;7.63;;;;;;;;;;5095260;28;20462;-69
2022/03/21 08:42:06;;;;;;;9.20;7.93;;;;;;;;;;5094653;28;20795;-70
2022/03/21 08:44:33;;;;;;;8.97;8.07;;;;;;;;;;5094825;28;20954;-70
2022/03/21 08:47:00;;;;;;;8.80;7.90;;;;;;;;;;5094508;28;20465;-70
2022/03/21 08:49:27;;;;;;;10.43;7.70;;;;;;;;;;5094743;28;20478;-70
2022/03/21 08:51:55;;;;;;;14.03;7.77;;;;;;;;;;5094602;28;20940;-70
2022/03/21 08:54:22;;;;;;;13.17;8.30;;;;;;;;;;5094486;28;20814;-70
2022/03/21 08:56:51;;;;;;;8.27;6.97;;;;;;;;;;5094544;28;20461;-70
2022/03/21 08:59:18;;;;;;;10.73;8.57;;;;;;;;;;5094596;28;20463;-70
2022/03/21 09:01:45;;;;;;;11.00;8.30;;;;;;;;;;5094398;28;20446;-71
2022/03/21 09:04:13;;;;;;;9.40;7.83;;;;;;;;;;5094466;28;20817;-70
2022/03/21 09:06:40;;;;;;;10.83;8.30;;;;;;;;;;5094649;28;20989;-70
2022/03/21 09:09:07;;;;;;;8.80;7.90;;;;;;;;;;5093866;28;20454;-70
2022/03/21 09:11:34;;;;;;;9.70;7.83;;;;;;;;;;5089680;28;20228;-70
2022/03/21 09:14:03;;;;;;;13.40;10.20;;;;;;;;;;5093018;28;20451;-72
2022/03/21 09:16:30;;;;;;;18.00;14.50;;;;;;;;;;5091786;28;20455;-71
2022/03/21 09:18:57;;;;;;;10.80;8.33;;;;;;;;;;5092237;28;20624;-69
2022/03/21 09:21:25;;;;;;;8.93;7.43;;;;;;;;;;5091595;28;20474;-71
2022/03/21 09:23:52;;;;;;;12.73;11.00;;;;;;;;;;5092943;28;20920;-70
2022/03/21 09:26:22;;;;;;;8.97;8.07;;;;;;;;;;5092754;28;20450;-70
2022/03/21 09:28:50;;;;;;;8.40;7.37;;;;;;;;;;5092099;28;20544;-70
2022/03/21 09:31:18;;;;;;;10.90;8.50;;;;;;;;;;5092759;28;20451;-70
2022/03/21 09:33:45;;;;;;;12.50;9.10;;;;;;;;;;5092061;28;20453;-70
2022/03/21 09:36:14;;;;;;;9.03;7.73;;;;;;;;;;5093049;28;21001;-71
2022/03/21 09:38:41;;;;;;;10.30;8.97;;;;;;;;;;5092842;28;20471;-74
2022/03/21 09:41:12;;;;;;;8.80;7.90;;;;;;;;;;5091935;28;20478;-70
2022/03/21 09:43:40;;;;;;;11.50;8.00;;;;;;;;;;5092946;28;20911;-70
2022/03/21 09:46:08;;;;;;;10.43;7.60;;;;;;;;;;5092813;28;20861;-70
2022/03/21 09:48:36;;;;;;;11.63;8.30;;;;;;;;;;5092129;28;20886;-71
2022/03/21 09:51:04;;;;;;;10.50;8.30;;;;;;;;;;5092520;28;20461;-71
2022/03/21 09:53:31;;;;;;;8.47;7.30;;;;;;;;;;5092402;28;20451;-71
2022/03/21 09:55:59;;;;;;;8.63;7.40;;;;;;;;;;5092076;28;20451;-71
2022/03/21 09:58:27;;;;;;;11.40;8.10;;;;;;;;;;5092300;28;20466;-70
2022/03/21 10:00:54;;;;;;;9.87;8.57;;;;;;;;;;5092439;28;20877;-70
2022/03/21 10:03:22;;;;;;;9.40;7.33;;;;;;;;;;5092014;28;20451;-71
2022/03/21 10:05:50;;;;;;;8.07;7.30;;;;;;;;;;5091973;28;20466;-72
2022/03/21 10:08:18;;;;;;;10.70;9.10;;;;;;;;;;5092088;28;20482;-70
2022/03/21 10:10:53;;;;;;;10.30;7.27;;;;;;;;;;5092063;28;20500;-71
2022/03/21 10:13:20;;;;;;;8.03;6.93;;;;;;;;;;5092458;28;20447;-71
2022/03/21 10:15:50;;;;;;;9.77;7.73;;;;;;;;;;5092317;28;20473;-70
2022/03/21 10:18:19;;;;;;;7.17;6.47;;;;;;;;;;5090971;28;20472;-69
2022/03/21 10:20:46;;;;;;;11.30;8.37;;;;;;;;;;5091884;28;20458;-70
2022/03/21 10:23:19;;;;;;;9.00;8.10;;;;;;;;;;5091823;28;20498;-71
2022/03/21 10:25:46;;;;;;;11.83;8.03;;;;;;;;;;5091576;28;20438;-71
2022/03/21 10:28:32;;;;;;;8.87;7.63;;;;;;;;;;5091612;28;20493;-70
2022/03/21 10:31:00;;;;;;;9.47;8.50;;;;;;;;;;5091487;28;20450;-71
2022/03/21 10:33:27;;;;;;;8.90;7.80;;;;;;;;;;5092593;28;20466;-73
2022/03/21 10:35:54;;;;;;;10.60;8.13;;;;;;;;;;5093034;28;20454;-70
2022/03/21 10:38:31;;;;;;;10.13;7.67;;;;;;;;;;5093112;28;20463;-70
2022/03/21 10:40:58;;;;;;;9.13;7.67;;;;;;;;;;5096985;28;20457;-71
2022/03/21 10:43:26;;;;;;;10.83;8.60;;;;;;;;;;5097141;28;20446;-71
2022/03/21 10:45:54;;;;;;;8.30;7.50;;;;;;;;;;5096997;28;20447;-70
2022/03/21 10:48:22;;;;;;;8.77;7.23;;;;;;;;;;5097026;28;20843;-71
2022/03/21 10:50:50;;;;;;;9.93;8.13;;;;;;;;;;5097201;28;20473;-70
2022/03/21 10:53:18;;;;;;;10.10;7.60;;;;;;;;;;5097085;28;20458;-70
2022/03/21 10:55:47;;;;;;;10.17;7.97;;;;;;;;;;5096841;28;20932;-71
2022/03/21 10:58:15;;;;;;;11.23;8.27;;;;;;;;;;5096810;28;20474;-70
2022/03/21 11:00:42;;;;;;;9.23;7.27;;;;;;;;;;5096892;28;20454;-70
2022/03/21 11:03:13;;;;;;;11.17;6.93;;;;;;;;;;5096324;28;20947;-70
2022/03/21 11:05:41;;;;;;;10.10;7.40;;;;;;;;;;5096662;28;20446;-70
2022/03/21 11:08:09;;;;;;;8.20;7.00;;;;;;;;;;5096502;28;20540;-70
2022/03/21 11:10:36;;;;;;;8.03;7.20;;;;;;;;;;5096269;28;21021;-70
2022/03/21 11:13:05;;;;;;;8.33;6.80;;;;;;;;;;5096711;28;20453;-70
2022/03/21 11:15:34;;;;;;;8.70;6.50;;;;;;;;;;5096418;28;20446;-70
2022/03/21 11:18:01;;;;;;;10.83;8.30;;;;;;;;;;5096415;28;20516;-69
2022/03/21 11:20:29;;;;;;;9.93;7.90;;;;;;;;;;5096593;28;20447;-70
2022/03/21 11:22:57;;;;;;;9.90;7.90;;;;;;;;;;5096144;28;20462;-70
2022/03/21 11:25:26;;;;;;;8.97;6.87;;;;;;;;;;5096176;28;20457;-70
2022/03/21 11:28:10;;;;;;;11.80;8.77;;;;;;;;;;5093814;28;20862;-70
2022/03/21 11:30:45;;;;;;;10.73;8.07;;;;;;;;;;5094962;28;20446;-71
2022/03/21 11:33:17;;;;;;;8.70;7.50;;;;;;;;;;5094737;28;20454;-71
2022/03/21 11:35:51;;;;;;;9.90;7.93;;;;;;;;;;5094535;28;20454;-71
2022/03/21 11:38:22;;;;;;;7.87;6.60;;;;;;;;;;5094835;28;21038;-71
2022/03/21 11:40:49;;;;;;;8.83;7.30;;;;;;;;;;5094210;28;20539;-70
2022/03/21 11:43:30;;;;;;;9.23;7.30;;;;;;;;;;5094571;28;20459;-71
2022/03/21 11:45:57;;;;;;;11.10;6.90;;;;;;;;;;5094486;28;20457;-70
2022/03/21 11:48:34;;;;;;;8.93;7.10;;;;;;;;;;5094501;28;20486;-70
2022/03/21 11:51:22;;;;;;;10.13;7.53;;;;;;;;;;5093536;28;20443;-71
2022/03/21 11:53:50;;;;;;;10.00;7.70;;;;;;;;;;5089140;28;20462;-71
2022/03/21 11:56:17;;;;;;;7.83;7.10;;;;;;;;;;5094349;28;20451;-71
2022/03/21 11:58:45;;;;;;;11.93;8.70;;;;;;;;;;5094143;28;20458;-71
2022/03/21 12:01:13;;;;;;;8.20;7.23;;;;;;;;;;5094189;28;20457;-70
2022/03/21 12:03:43;;;;;;;9.83;7.67;;;;;;;;;;5094258;28;20442;-70
2022/03/21 12:06:23;;;;;;;13.10;7.53;;;;;;;;;;5093998;28;20542;-71
2022/03/21 12:08:51;;;;;;;8.57;7.27;;;;;;;;;;5093806;28;20486;-72
2022/03/21 12:11:33;;;;;;;9.50;6.90;;;;;;;;;;5094504;28;20443;-71
2022/03/21 12:14:15;;;;;;;11.33;8.03;;;;;;;;;;5080893;28;20480;-71
2022/03/21 12:16:43;;;;;;;21.90;8.50;;;;;;;;;;5093176;28;20450;-70
2022/03/21 12:19:10;;;;;;;12.93;7.97;;;;;;;;;;5092946;28;20478;-70
2022/03/21 12:21:37;;;;;;;9.47;7.50;;;;;;;;;;5093046;28;20463;-71
2022/03/21 12:24:17;;;;;;;13.60;7.63;;;;;;;;;;5093698;28;20483;-70
2022/03/21 12:26:53;;;;;;;8.60;6.93;;;;;;;;;;5093810;28;20524;-71
2022/03/21 12:29:33;;;;;;;8.70;6.20;;;;;;;;;;5082235;28;20495;-70
2022/03/21 12:32:18;;;;;;;10.47;7.90;;;;;;;;;;5074663;28;20835;-70
2022/03/21 12:34:47;;;;;;;9.60;7.27;;;;;;;;;;5074612;28;20452;-70
2022/03/21 12:37:24;;;;;;;8.00;6.83;;;;;;;;;;5074683;28;20459;-70
2022/03/21 12:39:53;;;;;;;8.93;7.93;;;;;;;;;;5074662;28;20781;-70
2022/03/21 12:42:21;;;;;;;8.57;6.87;;;;;;;;;;5074766;28;20456;-70
2022/03/21 12:44:48;;;;;;;8.37;7.27;;;;;;;;;;5074337;28;20963;-70
2022/03/21 12:47:17;;;;;;;12.30;7.70;;;;;;;;;;5074598;28;20479;-70
2022/03/21 12:49:49;;;;;;;7.70;6.20;;;;;;;;;;5074518;28;20491;-70
2022/03/21 12:52:26;;;;;;;11.10;7.70;;;;;;;;;;5074581;28;20510;-70
2022/03/21 12:54:54;;;;;;;9.50;7.37;;;;;;;;;;5073804;28;20451;-70
2022/03/21 12:57:22;;;;;;;9.07;7.67;;;;;;;;;;5074382;28;20529;-70
2022/03/21 12:59:49;;;;;;;7.73;6.93;;;;;;;;;;5074249;28;20451;-70
2022/03/21 13:02:25;;;;;;;10.60;7.10;;;;;;;;;;5073145;28;20459;-69
2022/03/21 13:10:34;;;;;;;9.50;7.97;;;;;;;;;;5074120;28;20482;-69
2022/03/21 13:13:01;;;;;;;8.27;6.70;;;;;;;;;;5074130;28;20917;-70
2022/03/21 13:15:29;;;;;;;9.07;7.50;;;;;;;;;;5073775;28;20479;-69
2022/03/21 13:18:01;;;;;;;8.63;7.83;;;;;;;;;;5073828;28;20467;-70
2022/03/21 13:20:30;;;;;;;7.10;6.40;;;;;;;;;;5073924;28;20531;-69
2022/03/21 13:22:58;;;;;;;11.40;7.33;;;;;;;;;;5073697;28;20487;-70
2022/03/21 13:25:26;;;;;;;10.60;7.63;;;;;;;;;;5073739;28;20814;-69
2022/03/21 13:27:53;;;;;;;9.53;7.70;;;;;;;;;;5073639;28;21007;-70
2022/03/21 13:30:20;;;;;;;9.67;6.40;;;;;;;;;;5073612;28;20495;-70
2022/03/21 13:32:47;;;;;;;8.10;6.17;;;;;;;;;;5073605;28;20795;-69
2022/03/21 13:35:14;;;;;;;9.33;6.67;;;;;;;;;;5075969;28;20440;-69
2022/03/21 13:37:43;;;;;;;8.43;6.30;;;;;;;;;;5073361;28;20482;-69
2022/03/21 13:40:12;;;;;;;12.07;6.70;;;;;;;;;;5073017;28;20444;-69
2022/03/21 13:42:39;;;;;;;8.00;6.87;;;;;;;;;;5073427;28;20447;-70
2022/03/21 13:45:07;;;;;;;8.80;6.60;;;;;;;;;;5073202;28;20451;-69
2022/03/21 13:47:47;;;;;;;9.00;6.60;;;;;;;;;;5073377;28;20830;-69
2022/03/21 13:50:14;;;;;;;14.10;6.83;;;;;;;;;;5073283;28;20483;-69
2022/03/21 13:52:44;;;;;;;7.43;6.30;;;;;;;;;;5073344;28;20443;-69
2022/03/21 13:55:12;;;;;;;8.60;7.20;;;;;;;;;;5073178;28;20497;-69
2022/03/21 13:57:48;;;;;;;9.83;6.33;;;;;;;;;;5073154;28;20499;-69
2022/03/21 14:00:16;;;;;;;9.47;7.10;;;;;;;;;;5073384;28;20505;-69
2022/03/21 14:02:44;;;;;;;8.53;6.10;;;;;;;;;;5073244;28;20959;-69
2022/03/21 14:05:20;;;;;;;10.23;6.23;;;;;;;;;;5073218;28;20471;-69
2022/03/21 14:07:50;;;;;;;7.83;5.90;;;;;;;;;;5073004;28;20479;-69
2022/03/21 14:10:18;;;;;;;11.50;6.97;;;;;;;;;;5073118;28;20487;-69
2022/03/21 14:12:49;;;;;;;11.57;7.03;;;;;;;;;;5073233;28;20467;-70
2022/03/21 14:15:16;;;;;;;11.43;5.93;;;;;;;;;;5072631;28;20452;-69
2022/03/21 14:17:45;;;;;;;11.40;7.77;;;;;;;;;;5073240;28;20471;-69
2022/03/21 14:20:13;;;;;;;9.03;6.57;;;;;;;;;;5072870;28;20440;-69
2022/03/21 14:22:40;;;;;;;7.97;6.60;;;;;;;;;;5072964;28;20980;-68
2022/03/21 14:27:51;;;;;;;7.93;6.37;;;;;;;;;;5072427;28;20463;-69
2022/03/21 14:30:18;;;;;;;10.13;6.80;;;;;;;;;;5072776;28;20480;-69
2022/03/21 14:32:46;;;;;;;8.93;6.20;;;;;;;;;;5072851;28;20455;-70
2022/03/21 14:35:13;;;;;;;13.17;6.80;;;;;;;;;;5072769;28;20455;-70
2022/03/21 14:37:40;;;;;;;7.97;5.90;;;;;;;;;;5072823;28;20495;-69
2022/03/21 14:40:08;;;;;;;12.60;8.53;;;;;;;;;;5072537;28;20459;-70
2022/03/21 14:42:36;;;;;;;13.50;6.70;;;;;;;;;;5072850;28;20945;-69
2022/03/21 14:45:03;;;;;;;8.93;7.23;;;;;;;;;;5072391;28;20451;-69
2022/03/21 14:47:31;;;;;;;8.87;6.90;;;;;;;;;;5072645;28;20882;-69
2022/03/21 14:49:58;;;;;;;13.57;6.90;;;;;;;;;;5072494;28;21004;-69
2022/03/21 14:52:25;;;;;;;10.40;6.83;;;;;;;;;;5072537;28;20451;-69
2022/03/21 14:54:52;;;;;;;11.47;8.00;;;;;;;;;;5072292;28;20448;-69
2022/03/21 14:57:19;;;;;;;8.43;6.40;;;;;;;;;;5072415;28;20478;-69
2022/03/21 14:59:48;;;;;;;9.40;5.90;;;;;;;;;;5072561;28;20444;-70
2022/03/21 15:02:15;;;;;;;9.00;6.23;;;;;;;;;;5072560;28;20475;-69
2022/03/21 15:04:42;;;;;;;9.43;6.73;;;;;;;;;;5072354;28;20447;-69
2022/03/21 15:07:09;;;;;;;15.83;8.23;;;;;;;;;;5072352;28;20963;-69